Time;durP1;ratioP1;P1;durP2;ratioP2;P2;SDS_P1;SDS_P2;PMS_P1;PMS_P2;Temp;Humidity;BMP_temperature;BMP_pressure;BME280_temperature;BME280_humidity;BME280_pressure;Samples;Min_cycle;Max_cycle;Signal;HPM_P1;HPM_P2
2022/12/16 00:02:11;;;;;;;138.52;80.18;;;;;;;5.08;66.66;94787.84;4968895;28;20037;-77
2022/12/16 00:04:37;;;;;;;143.02;81.78;;;;;;;5.18;66.80;94784.22;4968781;28;20027;-77
2022/12/16 00:07:02;;;;;;;140.38;80.82;;;;;;;5.17;66.52;94793.59;4985777;28;20030;-78
2022/12/16 00:09:28;;;;;;;148.52;82.13;;;;;;;5.16;66.78;94796.69;4968648;28;20045;-76
2022/12/16 00:11:53;;;;;;;141.90;80.00;;;;;;;5.15;66.72;94787.75;4987671;28;20026;-78
2022/12/16 00:14:18;;;;;;;126.15;77.53;;;;;;;5.19;66.80;94782.28;4989311;28;20038;-77
2022/12/16 00:16:44;;;;;;;135.68;80.82;;;;;;;5.20;66.75;94786.53;4991016;28;20022;-77
2022/12/16 00:19:09;;;;;;;138.32;81.97;;;;;;;5.25;66.41;94777.94;4989296;28;20049;-77
2022/12/16 00:21:35;;;;;;;131.52;77.78;;;;;;;5.29;66.63;94781.41;4972681;28;20034;-77
2022/12/16 00:24:01;;;;;;;128.43;75.13;;;;;;;5.32;66.97;94781.34;4972501;28;20061;-78
2022/12/16 00:26:28;;;;;;;144.88;79.55;;;;;;;5.33;66.83;94776.66;4972408;28;20037;-77
2022/12/16 00:28:56;;;;;;;138.02;80.68;;;;;;;5.37;66.51;94773.91;4957041;28;20029;-77
2022/12/16 00:31:22;;;;;;;135.43;76.85;;;;;;;5.39;66.44;94790.59;4955924;28;20452;-78
2022/12/16 00:33:47;;;;;;;138.15;80.10;;;;;;;5.40;66.34;94778.56;4973828;28;20069;-77
2022/12/16 00:36:12;;;;;;;130.15;77.45;;;;;;;5.41;66.24;94791.00;4994586;28;20089;-78
2022/12/16 00:38:38;;;;;;;133.55;78.40;;;;;;;5.45;65.64;94788.97;4973551;28;20038;-78
2022/12/16 00:41:03;;;;;;;138.30;80.70;;;;;;;5.47;65.82;94787.41;4972456;28;20034;-78
2022/12/16 00:43:29;;;;;;;146.07;78.68;;;;;;;5.48;66.03;94790.91;4956287;28;20063;-79
2022/12/16 00:45:54;;;;;;;136.38;80.32;;;;;;;5.47;65.82;94776.50;4972684;28;20397;-77
2022/12/16 00:48:24;;;;;;;149.32;80.15;;;;;;;5.52;66.02;94784.25;4971896;28;20381;-79
2022/12/16 00:50:52;;;;;;;131.10;76.82;;;;;;;5.51;65.68;94768.28;4973248;28;20077;-78
2022/12/16 00:53:19;;;;;;;132.45;74.43;;;;;;;5.50;65.00;94762.03;4956211;28;20037;-80
2022/12/16 00:55:45;;;;;;;131.32;72.00;;;;;;;5.39;65.17;94785.16;4958358;28;20026;-77
2022/12/16 00:58:11;;;;;;;132.15;74.47;;;;;;;5.35;64.92;94787.16;4972399;28;20039;-77
2022/12/16 01:00:36;;;;;;;113.35;66.57;;;;;;;5.21;64.84;94766.28;4956301;28;20141;-77
2022/12/16 01:03:02;;;;;;;121.38;67.55;;;;;;;5.10;65.31;94787.41;4956451;28;20382;-77
2022/12/16 01:05:27;;;;;;;127.13;64.50;;;;;;;5.04;65.47;94776.97;4989176;28;20034;-78
2022/12/16 01:07:53;;;;;;;105.68;60.42;;;;;;;5.05;65.56;94758.69;4940095;28;20022;-77
2022/12/16 02:06:39;;;;;;;164.65;81.63;;;;;;;4.84;70.19;94731.66;5146690;27;20377;-77
2022/12/16 02:09:06;;;;;;;140.60;73.78;;;;;;;4.97;69.30;94724.50;5162675;27;20049;-78
2022/12/16 02:11:52;;;;;;;125.82;62.00;;;;;;;5.02;69.32;94726.78;5127501;27;20015;-75
2022/12/16 02:14:21;;;;;;;123.97;63.20;;;;;;;5.04;69.03;94725.19;5131171;27;20054;-76
2022/12/16 02:17:02;;;;;;;130.25;63.97;;;;;;;5.06;68.94;94722.06;5145320;27;20037;-76
2022/12/16 02:19:31;;;;;;;125.60;58.67;;;;;;;5.06;68.49;94716.63;5094697;27;20027;-78
2022/12/16 02:22:24;;;;;;;126.95;59.03;;;;;;;5.09;68.00;94723.97;5145902;27;20171;-78
2022/12/16 02:24:58;;;;;;;121.23;56.20;;;;;;;5.03;68.16;94723.66;5145391;27;20041;-76
2022/12/16 02:27:38;;;;;;;118.32;54.35;;;;;;;5.04;67.77;94730.63;5146768;27;20034;-77
2022/12/16 02:30:22;;;;;;;117.88;57.20;;;;;;;5.01;67.64;94728.75;5110844;27;20022;-77
2022/12/16 02:33:21;;;;;;;;;;;;;;;5.05;67.49;94723.25;5147092;27;20492;-78
2022/12/16 02:35:55;;;;;;;102.05;48.40;;;;;;;5.00;67.79;94712.81;5094313;27;20447;-75
2022/12/16 02:38:28;;;;;;;111.45;52.63;;;;;;;4.93;68.04;94734.66;5144882;27;20031;-77
2022/12/16 02:41:05;;;;;;;108.18;48.97;;;;;;;4.85;68.16;94728.50;5129117;27;20023;-77
2022/12/16 02:43:36;;;;;;;95.63;46.30;;;;;;;4.86;68.42;94749.13;5109824;27;20099;-77
2022/12/16 02:46:03;;;;;;;91.45;45.35;;;;;;;4.79;68.44;94725.47;5146932;27;20034;-76
2022/12/16 02:48:29;;;;;;;87.55;43.25;;;;;;;4.82;68.27;94736.72;5111041;27;20065;-76
2022/12/16 02:50:54;;;;;;;78.25;39.63;;;;;;;4.84;68.16;94737.09;5145117;27;20034;-77
2022/12/16 02:53:20;;;;;;;81.65;37.83;;;;;;;4.84;67.94;94737.09;5146502;27;20023;-77
2022/12/16 02:56:17;;;;;;;66.20;36.10;;;;;;;4.79;67.86;94763.59;5108441;27;20023;-75
2022/12/16 02:58:46;;;;;;;58.67;30.10;;;;;;;4.78;67.65;94764.00;5129354;27;20047;-76
2022/12/16 03:01:18;;;;;;;60.83;29.67;;;;;;;4.75;67.85;94775.69;5109967;27;20115;-76
2022/12/16 03:03:57;;;;;;;54.30;29.58;;;;;;;4.74;67.98;94771.41;5126929;27;20025;-76
2022/12/16 03:06:23;;;;;;;45.22;26.17;;;;;;;4.71;67.83;94755.91;5119437;27;20181;-77
2022/12/16 03:08:50;;;;;;;42.35;23.95;;;;;;;4.82;67.66;94726.63;5129385;27;20035;-78
2022/12/16 03:11:16;;;;;;;38.47;21.20;;;;;;;4.83;67.46;94735.56;5130723;27;20019;-76
2022/12/16 03:13:45;;;;;;;36.42;20.60;;;;;;;4.79;67.70;94724.69;5129057;27;20027;-76
2022/12/16 03:16:11;;;;;;;38.42;20.73;;;;;;;4.78;67.81;94723.16;5130992;27;20020;-77
2022/12/16 03:18:37;;;;;;;37.40;21.55;;;;;;;4.77;67.60;94724.34;5130010;27;20058;-75
2022/12/16 03:21:05;;;;;;;38.55;21.75;;;;;;;4.74;67.69;94709.56;5129406;27;20424;-76
2022/12/16 03:23:34;;;;;;;42.15;23.60;;;;;;;4.72;67.83;94711.16;5096357;27;20110;-76
2022/12/16 03:26:07;;;;;;;43.35;24.55;;;;;;;4.74;67.48;94722.41;5128500;27;20076;-75
2022/12/16 03:28:55;;;;;;;45.78;26.23;;;;;;;4.78;66.62;94713.03;5130258;27;20023;-77
2022/12/16 03:31:37;;;;;;;42.40;23.60;;;;;;;4.80;67.10;94718.06;5129728;27;20058;-76
2022/12/16 03:34:13;;;;;;;46.05;25.98;;;;;;;4.75;66.71;94730.16;5129617;27;20007;-76
2022/12/16 03:36:39;;;;;;;50.60;26.88;;;;;;;4.81;66.38;94741.38;5130038;27;20027;-77
2022/12/16 03:39:04;;;;;;;48.70;26.17;;;;;;;4.77;66.33;94749.59;5111796;27;20035;-77
2022/12/16 03:41:30;;;;;;;52.42;29.45;;;;;;;4.71;66.26;94759.41;5129892;27;20041;-76
2022/12/16 03:43:55;;;;;;;49.00;27.35;;;;;;;4.68;66.26;94752.03;5128716;27;20335;-77
2022/12/16 03:46:21;;;;;;;51.42;29.50;;;;;;;4.63;66.50;94757.13;5130016;27;20381;-76
2022/12/16 03:48:48;;;;;;;48.60;26.65;;;;;;;4.60;66.41;94728.00;5111827;27;20031;-78
2022/12/16 03:51:14;;;;;;;47.17;26.10;;;;;;;4.56;66.60;94743.59;5130993;27;20037;-76
2022/12/16 03:53:40;;;;;;;51.53;28.73;;;;;;;4.48;66.82;94742.88;5113012;27;20472;-76
2022/12/16 03:56:05;;;;;;;46.83;27.02;;;;;;;4.51;66.64;94755.66;5128101;27;20034;-75
2022/12/16 03:58:32;;;;;;;52.28;26.70;;;;;;;4.50;66.54;94781.34;5131260;27;20536;-77
2022/12/16 04:00:59;;;;;;;45.90;25.10;;;;;;;4.53;66.59;94762.28;5129821;27;20034;-77
2022/12/16 04:03:24;;;;;;;49.70;24.92;;;;;;;4.49;66.70;94753.34;5130127;27;20031;-77
2022/12/16 04:05:50;;;;;;;44.47;24.77;;;;;;;4.52;66.73;94754.50;5129614;27;20126;-77
2022/12/16 04:08:15;;;;;;;42.13;24.30;;;;;;;4.42;66.97;94734.38;5130747;27;20023;-76
2022/12/16 04:24:28;;;;;;;30.70;18.02;;;;;;;4.32;68.48;94762.44;5114949;27;20037;-75
2022/12/16 04:30:17;;;;;;;;;;;;;;;4.40;69.23;94758.47;5132402;27;20042;-75
2022/12/16 04:32:23;;;;;;;30.38;18.38;;;;;;;4.31;69.61;94757.41;5131571;27;19918;-76
2022/12/16 04:34:48;;;;;;;27.70;18.02;;;;;;;4.35;69.67;94745.28;5129476;27;20019;-75
